Flight Track Log - Related Links

Times and Time Zones

All times are in EDT time to prevent confusion due to time zone crossing. See the N36QM flight status page for this flight to view local times or setup timezone preferences in your user account.

Time Position Orientation Groundspeed Altitude Reporting Facility
EDT Latitude Longitude Course Direction KTS MPH feet Rate Location/Type
Sat 08:25:16 AM 41.4461 -86.6083 20° North 130 150 4,200  Level Chicago Center
Sat 08:26:17 AM 41.4800 -86.5939 18° North 129 148 4,800 585 Climbing Chicago Center
Sat 08:27:19 AM 41.5136 -86.5767 21° North 129 148 5,400 585 Climbing Chicago Center
Sat 08:28:20 AM 41.5489 -86.5594 20° North 134 154 6,000 585 Climbing Chicago Center
Sat 08:29:00 AM 41.5936 -86.5406 19° North  Level Estimated
Sat 08:29:22 AM 41.5847 -86.5442 18° North 135 155 6,600  Level Chicago Center
Sat 08:30:00 AM 41.6374 -86.5198 20° North  Level Estimated
Sat 08:30:23 AM 41.6272 -86.5242 19° North 135 155 7,000  Level Chicago Center
Sat 08:31:24 AM 41.6708 -86.5028 20° North 163 188 7,000  Level Chicago Center
Sat 08:32:26 AM 41.7169 -86.4811 19° North 174 200 7,000  Level Chicago Center
Sat 08:33:27 AM 41.7642 -86.4592 19° North 179 206 7,000  Level Chicago Center
Sat 08:34:29 AM 41.8094 -86.4364 21° North 175 201 7,000  Level Chicago Center
Sat 08:35:30 AM 41.8564 -86.4150 19° North 177 204 7,000  Level Chicago Center
Sat 08:36:32 AM 41.9025 -86.3936 19° North 176 203 7,000  Level Chicago Center
Sat 08:37:33 AM 41.9478 -86.3711 20° North 174 200 7,000  Level Chicago Center
Sat 08:38:34 AM 41.9933 -86.3492 20° North 174 200 7,000  Level Chicago Center
Sat 08:39:36 AM 42.0481 -86.3219 20° North 174 200 7,000  Level Chicago Center
Sat 08:40:37 AM 42.0942 -86.3017 18° North 175 201 7,000  Level Chicago Center
Sat 08:41:39 AM 42.1392 -86.2772 22° Northeast 174 200 7,000  Level Chicago Center
Sat 08:42:40 AM 42.1839 -86.2536 21° North 174 200 7,000  Level Chicago Center
Sat 08:43:42 AM 42.2294 -86.2306 21° North 174 200 7,000  Level Chicago Center
Sat 08:44:43 AM 42.2761 -86.2100 18° North 176 203 7,000  Level Chicago Center
Sat 08:45:45 AM 42.3278 -86.1844 20° North 175 201 7,000  Level Chicago Center
Sat 08:46:46 AM 42.3736 -86.1622 20° North 175 201 7,000  Level Chicago Center
Sat 08:47:47 AM 42.4192 -86.1397 20° North 175 201 7,000  Level Chicago Center
Sat 08:48:49 AM 42.4650 -86.1161 21° North 176 203 7,000  Level Chicago Center
Sat 08:49:50 AM 42.5097 -86.0944 20° North 173 199 7,000  Level Chicago Center
Sat 08:50:52 AM 42.5553 -86.0725 20° North 172 198 7,000  Level Chicago Center
Sat 08:51:53 AM 42.6006 -86.0511 19° North 173 199 7,000  Level Chicago Center
Sat 08:52:55 AM 42.6467 -86.0292 19° North 174 200 7,000  Level Chicago Center
Sat 08:53:56 AM 42.7006 -86.0019 20° North 174 200 7,000  Level Chicago Center
Sat 08:54:58 AM 42.7456 -85.9797 20° North 173 199 7,000  Level Chicago Center
Sat 08:55:59 AM 42.7911 -85.9575 20° North 174 200 7,000 -49 Level Chicago Center
Sat 08:57:01 AM 42.8361 -85.9347 20° North 174 200 6,900  Descending Chicago Center
Sat 08:58:02 AM 42.8822 -85.9125 19° North 177 204 7,000 49 Climbing Chicago Center
Sat 08:59:04 AM 42.9281 -85.8900 20° North 176 203 7,000  Level Chicago Center
Sat 09:00:05 AM 42.9736 -85.8675 20° North 176 203 7,000  Level Chicago Center
Sat 09:01:07 AM 43.0278 -85.8406 20° North 176 203 7,000  Level Chicago Center
Sat 09:02:09 AM 43.0728 -85.8172 21° North 176 203 7,000  Level Chicago Center
Sat 09:03:10 AM 43.1186 -85.7956 19° North 176 203 7,000  Level Chicago Center
Sat 09:04:12 AM 43.1642 -85.7728 20° North 176 203 7,000  Level Chicago Center
Sat 09:05:13 AM 43.2106 -85.7503 19° North 177 204 7,000  Level Chicago Center
Sat 09:06:15 AM 43.2561 -85.7269 20° North 174 200 7,000  Level Chicago Center
Sat 09:07:17 AM 43.3111 -85.6989 20° North 175 201 7,000  Level Chicago Center
Sat 09:08:18 AM 43.3567 -85.6758 20° North 177 204 7,000  Level Chicago Center
Sat 09:09:20 AM 43.4028 -85.6533 20° North 176 203 7,000  Level Chicago Center
Sat 09:10:22 AM 43.4481 -85.6308 20° North 176 203 7,000  Level Chicago Center
Sat 09:11:23 AM 43.4944 -85.6069 20° North 178 205 7,000  Level Chicago Center
Sat 09:12:25 AM 43.5408 -85.5847 19° North 177 204 7,000 48 Level Chicago Center
Sat 09:13:27 AM 43.5861 -85.5608 21° North 177 204 7,100 49 Climbing Chicago Center
Sat 09:14:28 AM 43.6403 -85.5331 20° North 174 200 7,100  Level Chicago Center
Sat 09:15:11 AM 43.6675 -85.5192 20° North 175 201 7,100  Level Minneapolis Center
Sat 09:16:13 AM 43.7133 -85.4964 20° North 175 201 7,100  Level Minneapolis Center
Sat 09:17:14 AM 43.7589 -85.4733 20° North 175 201 7,100 -49 Level Minneapolis Center
Sat 09:18:15 AM 43.8131 -85.4453 20° North 175 201 7,000 -49 Descending Minneapolis Center
Sat 09:19:17 AM 43.8589 -85.4214 21° North 175 201 7,000  Level Minneapolis Center
Sat 09:20:30 AM 43.9047 -85.3975 21° North 176 203 7,000 45 Level Minneapolis Center
Sat 09:21:31 AM 43.9589 -85.3692 21° North 174 200 7,100 49 Climbing Minneapolis Center
Sat 09:22:33 AM 44.0058 -85.3486 17° North 177 204 7,100 -49 Level Minneapolis Center
Sat 09:23:34 AM 44.0528 -85.3222 22° Northeast 178 205 7,000 -49 Descending Minneapolis Center
Sat 09:24:35 AM 44.0986 -85.2969 22° Northeast 178 205 7,000  Level Minneapolis Center
Sat 09:25:37 AM 44.1456 -85.2733 20° North 178 205 7,000  Level Minneapolis Center
Sat 09:26:38 AM 44.1914 -85.2506 20° North 178 205 7,000  Level Minneapolis Center
Sat 09:27:40 AM 44.2469 -85.2222 20° North 177 204 7,000  Level Minneapolis Center
Sat 09:28:41 AM 44.2925 -85.1978 21° North 177 204 7,000  Level Minneapolis Center
Sat 09:29:42 AM 44.3392 -85.1756 19° North 177 204 7,000  Level Minneapolis Center
Sat 09:31:00 AM 44.3876 -85.1489 21° North  Level FlightAware Approximate
Sat 09:38:00 AM 44.6924 -84.9872 20° North  Level FlightAware Approximate
Sat 09:39:00 AM 44.7348 -84.9602 25° Northeast  Level FlightAware Approximate
Sat 09:40:00 AM 44.7776 -84.9347 21° North  Level FlightAware Approximate
Sat 09:41:00 AM 44.8209 -84.9106 21° North  Level FlightAware Approximate
Sat 09:42:00 AM 44.8643 -84.8866 22° Northeast  Level FlightAware Approximate
Sat 09:43:00 AM 44.9000 -84.8667 North  Level FlightAware Approximate
Sat 09:44:00 AM 44.9118 -84.8753 North  Level Estimated
Sat 09:45:00 AM 44.9118 -84.8753 North  Level Estimated
Sat 09:46:00 AM 44.9118 -84.8753 North  Level Estimated
Sat 09:47:00 AM 44.9118 -84.8753 North  Level Estimated
Sat 09:48:00 AM 44.9118 -84.8753 North  Level Estimated
Sat 09:49:00 AM 44.9118 -84.8753 North  Level Estimated

Login

Don't have an account? Register now (free) for customized features, flight alerts, and more!